sensor_id;sensor_type;location;lat;lon;timestamp;pressure;altitude;pressure_sealevel;temperature;humidity
13553;BME280;6847;48.830;9.116;2023-05-02T00:01:34;98008.78;;;12.75;64.42
13553;BME280;6847;48.830;9.116;2023-05-02T00:04:00;98016.41;;;12.73;64.49
13553;BME280;6847;48.830;9.116;2023-05-02T00:06:27;98013.69;;;12.73;64.14
13553;BME280;6847;48.830;9.116;2023-05-02T00:09:07;97963.00;;;12.40;64.81
13553;BME280;6847;48.830;9.116;2023-05-02T00:11:33;97988.88;;;12.56;64.71
13553;BME280;6847;48.830;9.116;2023-05-02T00:14:00;98005.66;;;12.63;64.63
13553;BME280;6847;48.830;9.116;2023-05-02T00:16:27;98013.56;;;12.59;65.14
13553;BME280;6847;48.830;9.116;2023-05-02T00:18:54;98005.19;;;12.56;64.25
13553;BME280;6847;48.830;9.116;2023-05-02T00:21:21;98004.16;;;12.52;64.63
13553;BME280;6847;48.830;9.116;2023-05-02T00:23:47;97941.56;;;12.09;64.85
13553;BME280;6847;48.830;9.116;2023-05-02T00:26:19;97997.94;;;12.46;65.25
13553;BME280;6847;48.830;9.116;2023-05-02T00:28:45;97999.31;;;12.44;64.89
13553;BME280;6847;48.830;9.116;2023-05-02T00:31:12;97981.53;;;12.33;64.99
13553;BME280;6847;48.830;9.116;2023-05-02T00:33:39;97935.88;;;12.06;64.70
13553;BME280;6847;48.830;9.116;2023-05-02T00:36:12;97918.88;;;11.95;64.87
13553;BME280;6847;48.830;9.116;2023-05-02T00:38:39;97907.81;;;11.92;65.08
13553;BME280;6847;48.830;9.116;2023-05-02T00:41:05;97999.84;;;12.46;64.81
13553;BME280;6847;48.830;9.116;2023-05-02T00:43:34;97995.22;;;12.46;64.89
13553;BME280;6847;48.830;9.116;2023-05-02T00:46:03;98003.09;;;12.48;64.73
13553;BME280;6847;48.830;9.116;2023-05-02T00:48:32;97986.66;;;12.34;64.54
13553;BME280;6847;48.830;9.116;2023-05-02T00:51:01;98008.78;;;12.51;64.85
13553;BME280;6847;48.830;9.116;2023-05-02T00:53:29;97970.13;;;12.31;64.48
13553;BME280;6847;48.830;9.116;2023-05-02T00:55:56;98004.16;;;12.52;64.86
13553;BME280;6847;48.830;9.116;2023-05-02T00:58:23;98007.38;;;12.54;64.46
13553;BME280;6847;48.830;9.116;2023-05-02T01:01:03;97949.09;;;12.17;65.34
13553;BME280;6847;48.830;9.116;2023-05-02T01:03:40;98003.00;;;12.58;64.77
13553;BME280;6847;48.830;9.116;2023-05-02T01:06:10;98010.03;;;12.59;64.32
13553;BME280;6847;48.830;9.116;2023-05-02T01:08:47;97941.81;;;12.13;65.37
13553;BME280;6847;48.830;9.116;2023-05-02T01:11:25;98015.00;;;12.52;64.77
13553;BME280;6847;48.830;9.116;2023-05-02T01:13:55;97952.94;;;12.11;65.38
13553;BME280;6847;48.830;9.116;2023-05-02T01:16:27;98011.47;;;12.51;64.82
13553;BME280;6847;48.830;9.116;2023-05-02T01:18:55;97901.66;;;11.81;65.42
13553;BME280;6847;48.830;9.116;2023-05-02T01:21:23;98009.09;;;12.45;65.13
13553;BME280;6847;48.830;9.116;2023-05-02T01:23:58;97998.28;;;12.40;65.09
13553;BME280;6847;48.830;9.116;2023-05-02T01:26:33;98003.16;;;12.43;65.04
13553;BME280;6847;48.830;9.116;2023-05-02T01:29:05;97952.44;;;12.09;64.80
13553;BME280;6847;48.830;9.116;2023-05-02T01:31:34;98019.38;;;12.48;64.57
13553;BME280;6847;48.830;9.116;2023-05-02T01:34:02;98018.84;;;12.46;65.15
13553;BME280;6847;48.830;9.116;2023-05-02T01:36:31;98015.59;;;12.44;64.85
13553;BME280;6847;48.830;9.116;2023-05-02T01:39:00;98016.19;;;12.41;64.47
13553;BME280;6847;48.830;9.116;2023-05-02T01:41:30;98021.09;;;12.39;65.11
13553;BME280;6847;48.830;9.116;2023-05-02T01:43:58;97960.94;;;11.98;65.32
13553;BME280;6847;48.830;9.116;2023-05-02T01:46:30;98023.88;;;12.34;64.92
13553;BME280;6847;48.830;9.116;2023-05-02T01:49:01;97989.59;;;12.09;64.72
13553;BME280;6847;48.830;9.116;2023-05-02T01:51:32;98024.19;;;12.27;65.02
13553;BME280;6847;48.830;9.116;2023-05-02T01:54:01;98018.53;;;12.23;65.15
13553;BME280;6847;48.830;9.116;2023-05-02T01:56:32;98024.53;;;12.20;65.12
13553;BME280;6847;48.830;9.116;2023-05-02T01:59:01;98029.69;;;12.17;64.83
13553;BME280;6847;48.830;9.116;2023-05-02T02:01:29;98026.44;;;12.15;65.11
13553;BME280;6847;48.830;9.116;2023-05-02T02:03:57;98029.47;;;12.13;64.85
13553;BME280;6847;48.830;9.116;2023-05-02T02:06:26;98013.28;;;12.03;65.21
13553;BME280;6847;48.830;9.116;2023-05-02T02:09:03;98031.41;;;12.08;65.59
13553;BME280;6847;48.830;9.116;2023-05-02T02:11:36;98027.34;;;12.05;65.10
13553;BME280;6847;48.830;9.116;2023-05-02T02:14:13;98031.19;;;12.04;64.77
13553;BME280;6847;48.830;9.116;2023-05-02T02:16:47;98038.78;;;12.02;64.47
13553;BME280;6847;48.830;9.116;2023-05-02T02:19:17;98035.28;;;11.97;65.47
13553;BME280;6847;48.830;9.116;2023-05-02T02:21:46;98039.91;;;11.96;65.11
13553;BME280;6847;48.830;9.116;2023-05-02T02:24:15;97993.19;;;11.60;64.38
13553;BME280;6847;48.830;9.116;2023-05-02T02:26:42;98036.75;;;11.84;64.76
13553;BME280;6847;48.830;9.116;2023-05-02T02:29:10;98033.50;;;11.82;64.76
13553;BME280;6847;48.830;9.116;2023-05-02T02:31:37;98056.22;;;11.91;65.28
13553;BME280;6847;48.830;9.116;2023-05-02T02:34:06;98058.13;;;11.91;65.05
13553;BME280;6847;48.830;9.116;2023-05-02T02:36:50;98057.06;;;11.86;64.91
13553;BME280;6847;48.830;9.116;2023-05-02T02:39:34;98031.41;;;11.64;64.93
13553;BME280;6847;48.830;9.116;2023-05-02T02:42:09;98064.69;;;11.79;65.53
13553;BME280;6847;48.830;9.116;2023-05-02T02:44:42;98059.81;;;11.76;65.44
13553;BME280;6847;48.830;9.116;2023-05-02T02:47:19;98070.13;;;11.74;65.38
13553;BME280;6847;48.830;9.116;2023-05-02T02:49:50;98047.44;;;11.60;64.92
13553;BME280;6847;48.830;9.116;2023-05-02T02:52:27;98076.41;;;11.75;65.10
13553;BME280;6847;48.830;9.116;2023-05-02T02:55:06;98081.84;;;11.75;65.50
13553;BME280;6847;48.830;9.116;2023-05-02T02:57:39;98064.78;;;11.64;64.51
13553;BME280;6847;48.830;9.116;2023-05-02T03:00:10;98026.38;;;11.37;65.75
13553;BME280;6847;48.830;9.116;2023-05-02T03:02:40;98001.81;;;11.23;65.14
13553;BME280;6847;48.830;9.116;2023-05-02T03:05:09;98093.13;;;11.87;65.14
13553;BME280;6847;48.830;9.116;2023-05-02T03:07:36;98070.94;;;11.80;64.68
13553;BME280;6847;48.830;9.116;2023-05-02T03:10:04;98106.56;;;12.07;65.35
13553;BME280;6847;48.830;9.116;2023-05-02T03:12:32;98107.06;;;12.14;64.63
13553;BME280;6847;48.830;9.116;2023-05-02T03:15:07;98049.78;;;11.82;64.33
13553;BME280;6847;48.830;9.116;2023-05-02T03:17:37;98053.25;;;11.88;65.24
13553;BME280;6847;48.830;9.116;2023-05-02T03:20:06;98113.47;;;12.34;64.77
13553;BME280;6847;48.830;9.116;2023-05-02T03:22:34;98111.78;;;12.38;64.83
13553;BME280;6847;48.830;9.116;2023-05-02T03:25:02;98116.06;;;12.44;64.64
13553;BME280;6847;48.830;9.116;2023-05-02T03:27:28;98046.91;;;12.02;65.00
13553;BME280;6847;48.830;9.116;2023-05-02T03:29:56;98072.84;;;12.18;65.28
13553;BME280;6847;48.830;9.116;2023-05-02T03:32:22;98111.78;;;12.43;64.33
13553;BME280;6847;48.830;9.116;2023-05-02T03:34:49;98107.44;;;12.42;64.70
13553;BME280;6847;48.830;9.116;2023-05-02T03:37:16;98124.16;;;12.54;64.76
13553;BME280;6847;48.830;9.116;2023-05-02T03:39:44;98133.91;;;12.55;64.69
13553;BME280;6847;48.830;9.116;2023-05-02T03:42:10;98138.25;;;12.56;64.77
13553;BME280;6847;48.830;9.116;2023-05-02T03:44:37;98140.41;;;12.59;64.50
13553;BME280;6847;48.830;9.116;2023-05-02T03:47:03;98080.44;;;12.21;64.46
13553;BME280;6847;48.830;9.116;2023-05-02T03:49:33;98153.94;;;12.64;64.50
13553;BME280;6847;48.830;9.116;2023-05-02T03:52:00;98052.06;;;12.04;64.60
13553;BME280;6847;48.830;9.116;2023-05-02T03:54:31;98089.03;;;12.34;65.14
13553;BME280;6847;48.830;9.116;2023-05-02T03:56:59;98138.72;;;12.68;64.87
13553;BME280;6847;48.830;9.116;2023-05-02T03:59:25;98157.59;;;12.83;64.96
13553;BME280;6847;48.830;9.116;2023-05-02T04:01:56;98097.69;;;12.36;64.40
13553;BME280;6847;48.830;9.116;2023-05-02T04:04:24;98166.19;;;12.95;64.91
13553;BME280;6847;48.830;9.116;2023-05-02T04:06:51;98141.25;;;12.88;64.50
13553;BME280;6847;48.830;9.116;2023-05-02T04:09:18;98133.09;;;12.88;65.00
13553;BME280;6847;48.830;9.116;2023-05-02T04:11:49;98168.78;;;13.11;65.07
13553;BME280;6847;48.830;9.116;2023-05-02T04:14:18;98174.69;;;13.18;64.73
13553;BME280;6847;48.830;9.116;2023-05-02T04:16:51;98120.59;;;12.87;65.00
13553;BME280;6847;48.830;9.116;2023-05-02T04:19:19;98169.72;;;13.25;64.56
13553;BME280;6847;48.830;9.116;2023-05-02T04:21:45;98173.50;;;13.29;64.38
13553;BME280;6847;48.830;9.116;2023-05-02T04:24:12;98164.88;;;13.22;64.38
13553;BME280;6847;48.830;9.116;2023-05-02T04:26:39;98143.47;;;13.15;64.56
13553;BME280;6847;48.830;9.116;2023-05-02T04:29:09;98117.25;;;12.95;64.64
13553;BME280;6847;48.830;9.116;2023-05-02T04:31:37;98068.66;;;12.65;64.95
13553;BME280;6847;48.830;9.116;2023-05-02T04:34:05;98181.56;;;13.39;65.39
13553;BME280;6847;48.830;9.116;2023-05-02T04:36:47;98179.88;;;13.43;65.14
13553;BME280;6847;48.830;9.116;2023-05-02T04:39:17;98181.75;;;13.48;65.29
13553;BME280;6847;48.830;9.116;2023-05-02T04:41:44;98187.09;;;13.53;64.90
13553;BME280;6847;48.830;9.116;2023-05-02T04:44:12;98185.19;;;13.53;64.55
13553;BME280;6847;48.830;9.116;2023-05-02T04:46:41;98190.63;;;13.53;65.21
13553;BME280;6847;48.830;9.116;2023-05-02T04:49:08;98188.72;;;13.54;64.73
13553;BME280;6847;48.830;9.116;2023-05-02T04:51:36;98194.41;;;13.57;65.16
13553;BME280;6847;48.830;9.116;2023-05-02T04:54:02;98055.03;;;12.70;64.83
13553;BME280;6847;48.830;9.116;2023-05-02T04:56:29;98188.41;;;13.60;64.52
13553;BME280;6847;48.830;9.116;2023-05-02T04:58:55;98155.19;;;13.40;64.72
13553;BME280;6847;48.830;9.116;2023-05-02T05:01:23;98199.16;;;13.70;65.09
13553;BME280;6847;48.830;9.116;2023-05-02T05:03:53;98208.31;;;13.80;65.17
13553;BME280;6847;48.830;9.116;2023-05-02T05:06:20;98213.63;;;13.90;64.63
13553;BME280;6847;48.830;9.116;2023-05-02T05:08:47;98197.88;;;13.87;64.97
13553;BME280;6847;48.830;9.116;2023-05-02T05:11:15;98223.16;;;14.11;64.78
13553;BME280;6847;48.830;9.116;2023-05-02T05:13:42;98222.03;;;14.12;64.70
13553;BME280;6847;48.830;9.116;2023-05-02T05:16:09;98184.16;;;13.97;64.57
13553;BME280;6847;48.830;9.116;2023-05-02T05:18:43;98246.25;;;14.37;64.58
13553;BME280;6847;48.830;9.116;2023-05-02T05:21:11;98248.88;;;14.48;64.44
13553;BME280;6847;48.830;9.116;2023-05-02T05:23:37;98248.78;;;14.53;64.55
13553;BME280;6847;48.830;9.116;2023-05-02T05:26:10;98242.94;;;14.59;64.53
13553;BME280;6847;48.830;9.116;2023-05-02T05:28:37;98094.72;;;13.66;64.45
13553;BME280;6847;48.830;9.116;2023-05-02T05:31:05;98257.75;;;14.72;64.57
13553;BME280;6847;48.830;9.116;2023-05-02T05:33:32;98258.81;;;14.76;64.41
13553;BME280;6847;48.830;9.116;2023-05-02T05:36:03;98260.63;;;14.80;64.57
13553;BME280;6847;48.830;9.116;2023-05-02T05:38:31;98262.47;;;14.85;64.65
13553;BME280;6847;48.830;9.116;2023-05-02T05:40:58;98227.88;;;14.67;64.47
13553;BME280;6847;48.830;9.116;2023-05-02T05:43:33;98259.91;;;14.94;64.44
13553;BME280;6847;48.830;9.116;2023-05-02T05:46:00;98273.66;;;15.02;64.42
13553;BME280;6847;48.830;9.116;2023-05-02T05:48:27;98145.66;;;14.22;64.28
13553;BME280;6847;48.830;9.116;2023-05-02T05:50:54;98281.16;;;15.10;64.37
13553;BME280;6847;48.830;9.116;2023-05-02T05:53:21;97934.66;;;12.93;64.13
13553;BME280;6847;48.830;9.116;2023-05-02T05:55:50;98224.31;;;14.85;64.20
13553;BME280;6847;48.830;9.116;2023-05-02T05:58:17;98290.56;;;15.37;64.11
13553;BME280;6847;48.830;9.116;2023-05-02T06:00:43;98292.00;;;15.48;64.18
13553;BME280;6847;48.830;9.116;2023-05-02T06:03:10;98296.31;;;15.54;64.13
13553;BME280;6847;48.830;9.116;2023-05-02T06:05:37;98301.19;;;15.57;64.22
13553;BME280;6847;48.830;9.116;2023-05-02T06:08:03;98296.13;;;15.64;63.98
13553;BME280;6847;48.830;9.116;2023-05-02T06:10:30;98309.09;;;15.72;64.00
13553;BME280;6847;48.830;9.116;2023-05-02T06:12:58;98313.31;;;15.78;64.04
13553;BME280;6847;48.830;9.116;2023-05-02T06:15:25;98267.38;;;15.53;63.99
13553;BME280;6847;48.830;9.116;2023-05-02T06:17:52;98313.16;;;15.88;64.05
13553;BME280;6847;48.830;9.116;2023-05-02T06:20:21;98320.63;;;15.97;63.73
13553;BME280;6847;48.830;9.116;2023-05-02T06:22:48;98312.97;;;15.99;63.80
13553;BME280;6847;48.830;9.116;2023-05-02T06:25:15;98323.38;;;16.10;63.84
13553;BME280;6847;48.830;9.116;2023-05-02T06:27:41;98330.59;;;16.20;63.56
13553;BME280;6847;48.830;9.116;2023-05-02T06:30:10;98331.41;;;16.34;63.63
13553;BME280;6847;48.830;9.116;2023-05-02T06:32:37;98319.66;;;16.47;63.44
13553;BME280;6847;48.830;9.116;2023-05-02T06:35:04;98251.47;;;16.15;63.40
13553;BME280;6847;48.830;9.116;2023-05-02T06:37:33;98338.38;;;16.81;63.04
13553;BME280;6847;48.830;9.116;2023-05-02T06:40:00;98318.03;;;16.74;63.12
13553;BME280;6847;48.830;9.116;2023-05-02T06:42:27;98325.50;;;16.82;62.99
13553;BME280;6847;48.830;9.116;2023-05-02T06:44:54;98347.78;;;16.89;63.22
13553;BME280;6847;48.830;9.116;2023-05-02T06:47:22;98352.22;;;16.85;62.99
13553;BME280;6847;48.830;9.116;2023-05-02T06:49:50;98353.47;;;16.79;63.29
13553;BME280;6847;48.830;9.116;2023-05-02T06:52:17;98353.75;;;16.77;63.29
13553;BME280;6847;48.830;9.116;2023-05-02T06:54:43;98361.97;;;16.77;63.25
13553;BME280;6847;48.830;9.116;2023-05-02T06:57:10;98327.56;;;16.62;63.09
13553;BME280;6847;48.830;9.116;2023-05-02T06:59:37;98295.75;;;16.39;63.54
13553;BME280;6847;48.830;9.116;2023-05-02T07:02:04;98355.28;;;16.70;63.33
13553;BME280;6847;48.830;9.116;2023-05-02T07:04:31;98369.28;;;16.68;63.21
13553;BME280;6847;48.830;9.116;2023-05-02T07:06:58;98343.72;;;16.45;62.99
13553;BME280;6847;48.830;9.116;2023-05-02T07:09:24;98344.53;;;16.46;63.35
13553;BME280;6847;48.830;9.116;2023-05-02T07:11:51;98379.50;;;16.62;63.15
13553;BME280;6847;48.830;9.116;2023-05-02T07:14:17;98361.38;;;16.53;62.97
13553;BME280;6847;48.830;9.116;2023-05-02T07:16:44;98356.28;;;16.46;63.29
13553;BME280;6847;48.830;9.116;2023-05-02T07:19:10;98386.69;;;16.72;62.84
13553;BME280;6847;48.830;9.116;2023-05-02T07:21:38;98393.38;;;16.80;62.76
13553;BME280;6847;48.830;9.116;2023-05-02T07:24:09;98391.53;;;16.89;62.92
13553;BME280;6847;48.830;9.116;2023-05-02T07:26:36;98391.75;;;16.92;63.01
13553;BME280;6847;48.830;9.116;2023-05-02T07:29:03;98393.38;;;16.93;62.62
13553;BME280;6847;48.830;9.116;2023-05-02T07:31:32;98387.09;;;16.93;62.68
13553;BME280;6847;48.830;9.116;2023-05-02T07:34:00;98399.94;;;16.92;62.95
13553;BME280;6847;48.830;9.116;2023-05-02T07:36:27;98394.16;;;16.94;62.58
13553;BME280;6847;48.830;9.116;2023-05-02T07:38:56;98395.97;;;16.98;62.73
13553;BME280;6847;48.830;9.116;2023-05-02T07:41:24;98396.66;;;17.04;62.41
13553;BME280;6847;48.830;9.116;2023-05-02T07:43:50;98401.44;;;17.12;62.30
13553;BME280;6847;48.830;9.116;2023-05-02T07:46:17;98396.94;;;17.16;62.61
13553;BME280;6847;48.830;9.116;2023-05-02T07:48:44;98397.97;;;17.20;62.04
13553;BME280;6847;48.830;9.116;2023-05-02T07:51:11;98403.50;;;17.29;62.39
13553;BME280;6847;48.830;9.116;2023-05-02T07:53:38;98406.44;;;17.32;62.21
13553;BME280;6847;48.830;9.116;2023-05-02T07:56:07;98408.03;;;17.33;62.15
13553;BME280;6847;48.830;9.116;2023-05-02T07:58:34;98421.25;;;17.31;61.95
13553;BME280;6847;48.830;9.116;2023-05-02T08:01:01;98350.63;;;16.84;61.82
13553;BME280;6847;48.830;9.116;2023-05-02T08:03:28;98417.41;;;17.32;61.97
13553;BME280;6847;48.830;9.116;2023-05-02T08:05:54;98420.38;;;17.45;62.09
13553;BME280;6847;48.830;9.116;2023-05-02T08:08:21;98421.25;;;17.54;61.80
13553;BME280;6847;48.830;9.116;2023-05-02T08:10:51;98425.41;;;17.65;61.68
13553;BME280;6847;48.830;9.116;2023-05-02T08:13:18;98429.44;;;17.81;61.37
13553;BME280;6847;48.830;9.116;2023-05-02T08:15:45;98437.06;;;17.93;61.71
13553;BME280;6847;48.830;9.116;2023-05-02T08:18:12;98439.06;;;18.01;61.73
13553;BME280;6847;48.830;9.116;2023-05-02T08:20:38;98440.69;;;18.02;61.50
13553;BME280;6847;48.830;9.116;2023-05-02T08:23:07;98330.28;;;17.34;61.59
13553;BME280;6847;48.830;9.116;2023-05-02T08:25:41;98202.41;;;16.59;61.39
13553;BME280;6847;48.830;9.116;2023-05-02T08:28:13;98443.34;;;18.16;61.60
13553;BME280;6847;48.830;9.116;2023-05-02T08:30:46;98410.41;;;18.07;61.24
13553;BME280;6847;48.830;9.116;2023-05-02T08:33:18;98414.56;;;18.27;61.05
13553;BME280;6847;48.830;9.116;2023-05-02T08:35:45;98428.56;;;18.56;60.84
13553;BME280;6847;48.830;9.116;2023-05-02T08:38:17;98428.38;;;18.83;60.65
13553;BME280;6847;48.830;9.116;2023-05-02T08:40:48;98433.88;;;18.92;60.60
13553;BME280;6847;48.830;9.116;2023-05-02T08:43:15;98443.94;;;19.14;60.00
13553;BME280;6847;48.830;9.116;2023-05-02T08:45:45;98423.94;;;19.22;59.96
13553;BME280;6847;48.830;9.116;2023-05-02T08:48:12;98425.25;;;19.33;59.94
13553;BME280;6847;48.830;9.116;2023-05-02T08:50:43;98418.47;;;19.39;60.06
13553;BME280;6847;48.830;9.116;2023-05-02T08:53:12;98447.44;;;19.71;59.61
13553;BME280;6847;48.830;9.116;2023-05-02T08:55:42;98454.72;;;19.93;59.51
13553;BME280;6847;48.830;9.116;2023-05-02T08:58:10;98455.66;;;20.14;59.46
13553;BME280;6847;48.830;9.116;2023-05-02T09:00:38;98461.78;;;20.20;59.15
13553;BME280;6847;48.830;9.116;2023-05-02T09:03:14;98463.38;;;20.29;59.11
13553;BME280;6847;48.830;9.116;2023-05-02T09:05:45;98459.84;;;20.38;59.02
13553;BME280;6847;48.830;9.116;2023-05-02T09:08:24;98465.94;;;20.60;58.77
13553;BME280;6847;48.830;9.116;2023-05-02T09:10:53;98430.00;;;20.57;58.76
13553;BME280;6847;48.830;9.116;2023-05-02T09:13:28;98468.50;;;21.03;58.46
13553;BME280;6847;48.830;9.116;2023-05-02T09:15:56;98467.44;;;21.25;58.27
13553;BME280;6847;48.830;9.116;2023-05-02T09:18:32;98472.03;;;21.42;58.00
13553;BME280;6847;48.830;9.116;2023-05-02T09:21:13;98476.63;;;21.59;58.02
13553;BME280;6847;48.830;9.116;2023-05-02T09:23:41;98421.66;;;21.41;57.51
13553;BME280;6847;48.830;9.116;2023-05-02T09:26:26;98465.34;;;21.72;57.50
13553;BME280;6847;48.830;9.116;2023-05-02T09:28:55;98454.31;;;21.72;57.47
13553;BME280;6847;48.830;9.116;2023-05-02T09:31:23;98460.97;;;22.13;56.89
13553;BME280;6847;48.830;9.116;2023-05-02T09:33:52;98479.34;;;22.54;56.39
13553;BME280;6847;48.830;9.116;2023-05-02T09:36:23;98475.34;;;22.51;56.44
13553;BME280;6847;48.830;9.116;2023-05-02T09:38:50;98487.28;;;22.56;56.45
13553;BME280;6847;48.830;9.116;2023-05-02T09:41:19;98468.78;;;22.56;56.65
13553;BME280;6847;48.830;9.116;2023-05-02T09:43:54;98469.78;;;22.97;56.38
13553;BME280;6847;48.830;9.116;2023-05-02T09:46:25;98451.03;;;23.27;55.67
13553;BME280;6847;48.830;9.116;2023-05-02T09:48:57;98473.78;;;24.40;54.12
13553;BME280;6847;48.830;9.116;2023-05-02T09:51:26;98366.38;;;25.63;51.14
13553;BME280;6847;48.830;9.116;2023-05-02T09:53:53;98396.94;;;26.47;50.07
13553;BME280;6847;48.830;9.116;2023-05-02T09:56:21;98454.06;;;27.66;48.86
13553;BME280;6847;48.830;9.116;2023-05-02T09:59:10;98482.97;;;28.51;48.55
13553;BME280;6847;48.830;9.116;2023-05-02T10:01:39;98332.38;;;27.29;49.49
13553;BME280;6847;48.830;9.116;2023-05-02T10:04:11;98434.03;;;28.50;48.81
13553;BME280;6847;48.830;9.116;2023-05-02T10:06:41;98491.28;;;29.79;47.94
13553;BME280;6847;48.830;9.116;2023-05-02T10:09:09;98461.19;;;30.28;46.72
13553;BME280;6847;48.830;9.116;2023-05-02T10:11:38;98446.19;;;30.82;46.24
13553;BME280;6847;48.830;9.116;2023-05-02T10:14:10;98483.66;;;32.02;45.14
13553;BME280;6847;48.830;9.116;2023-05-02T10:16:46;98460.38;;;32.26;44.71
13553;BME280;6847;48.830;9.116;2023-05-02T10:19:26;98501.88;;;33.18;43.83
13553;BME280;6847;48.830;9.116;2023-05-02T10:21:52;98498.00;;;33.50;43.54
13553;BME280;6847;48.830;9.116;2023-05-02T10:24:23;98495.72;;;33.37;43.68
13553;BME280;6847;48.830;9.116;2023-05-02T10:26:50;98507.34;;;33.39;43.58
13553;BME280;6847;48.830;9.116;2023-05-02T10:29:17;98477.34;;;33.29;43.89
13553;BME280;6847;48.830;9.116;2023-05-02T10:31:45;98494.66;;;33.65;43.27
13553;BME280;6847;48.830;9.116;2023-05-02T10:34:15;98480.53;;;33.76;43.01
13553;BME280;6847;48.830;9.116;2023-05-02T10:36:46;98495.84;;;33.20;44.31
13553;BME280;6847;48.830;9.116;2023-05-02T10:39:14;98485.19;;;32.27;45.30
13553;BME280;6847;48.830;9.116;2023-05-02T10:41:48;98486.09;;;31.92;45.66
13553;BME280;6847;48.830;9.116;2023-05-02T10:44:31;98486.16;;;31.36;45.97
13553;BME280;6847;48.830;9.116;2023-05-02T10:49:49;98482.56;;;29.92;46.98
13553;BME280;6847;48.830;9.116;2023-05-02T10:52:35;98477.09;;;28.96;47.81
13553;BME280;6847;48.830;9.116;2023-05-02T10:55:19;98433.84;;;28.02;48.35
13553;BME280;6847;48.830;9.116;2023-05-02T10:58:22;98380.63;;;26.91;48.75
13553;BME280;6847;48.830;9.116;2023-05-02T11:00:53;98469.25;;;26.73;49.57
13553;BME280;6847;48.830;9.116;2023-05-02T11:03:54;98457.75;;;26.13;49.72
13553;BME280;6847;48.830;9.116;2023-05-02T11:06:25;98465.63;;;26.50;48.57
13553;BME280;6847;48.830;9.116;2023-05-02T11:11:57;98289.84;;;27.95;44.73
13553;BME280;6847;48.830;9.116;2023-05-02T11:14:53;98460.81;;;29.53;43.54
13553;BME280;6847;48.830;9.116;2023-05-02T11:17:21;98458.69;;;29.36;43.61
13553;BME280;6847;48.830;9.116;2023-05-02T11:22:55;98464.75;;;30.14;42.87
13553;BME280;6847;48.830;9.116;2023-05-02T11:25:29;98423.38;;;30.59;42.17
13553;BME280;6847;48.830;9.116;2023-05-02T11:27:59;98430.19;;;30.72;41.90
13553;BME280;6847;48.830;9.116;2023-05-02T11:30:42;98463.75;;;30.72;42.46
13553;BME280;6847;48.830;9.116;2023-05-02T11:33:15;98458.38;;;30.21;42.84
13553;BME280;6847;48.830;9.116;2023-05-02T11:35:47;98450.50;;;29.61;43.69
13553;BME280;6847;48.830;9.116;2023-05-02T11:38:17;98432.47;;;28.93;43.99
13553;BME280;6847;48.830;9.116;2023-05-02T11:40:52;98461.91;;;28.90;44.13
13553;BME280;6847;48.830;9.116;2023-05-02T11:43:25;98464.22;;;28.81;43.90
13553;BME280;6847;48.830;9.116;2023-05-02T11:45:52;98441.91;;;28.78;44.13
13553;BME280;6847;48.830;9.116;2023-05-02T11:48:20;98465.28;;;29.14;43.21
13553;BME280;6847;48.830;9.116;2023-05-02T11:50:52;98456.81;;;29.51;42.08
13553;BME280;6847;48.830;9.116;2023-05-02T11:53:21;98453.38;;;29.75;41.84
13553;BME280;6847;48.830;9.116;2023-05-02T11:55:51;98460.34;;;30.06;41.67
13553;BME280;6847;48.830;9.116;2023-05-02T11:58:22;98448.84;;;30.25;41.37
13553;BME280;6847;48.830;9.116;2023-05-02T12:00:52;98452.47;;;30.43;41.55
13553;BME280;6847;48.830;9.116;2023-05-02T12:03:21;98418.03;;;29.97;41.90
13553;BME280;6847;48.830;9.116;2023-05-02T12:05:50;98447.59;;;30.12;41.50
13553;BME280;6847;48.830;9.116;2023-05-02T12:08:19;98469.94;;;30.12;41.46
13553;BME280;6847;48.830;9.116;2023-05-02T12:10:48;98466.44;;;29.60;42.09
13553;BME280;6847;48.830;9.116;2023-05-02T12:13:24;98432.13;;;28.61;42.85
13553;BME280;6847;48.830;9.116;2023-05-02T12:15:53;98462.88;;;28.01;43.69
13553;BME280;6847;48.830;9.116;2023-05-02T12:18:23;98465.28;;;27.20;44.17
13553;BME280;6847;48.830;9.116;2023-05-02T12:20:52;98462.13;;;26.53;44.78
13553;BME280;6847;48.830;9.116;2023-05-02T12:23:20;98455.13;;;26.01;45.12
13553;BME280;6847;48.830;9.116;2023-05-02T12:25:49;98457.44;;;25.61;44.72
13553;BME280;6847;48.830;9.116;2023-05-02T12:28:17;98463.09;;;25.33;44.77
13553;BME280;6847;48.830;9.116;2023-05-02T12:30:48;98396.56;;;24.66;44.37
13553;BME280;6847;48.830;9.116;2023-05-02T12:33:19;98451.69;;;25.19;44.02
13553;BME280;6847;48.830;9.116;2023-05-02T12:35:45;98457.75;;;25.75;43.38
13553;BME280;6847;48.830;9.116;2023-05-02T12:38:15;98443.91;;;25.94;42.75
13553;BME280;6847;48.830;9.116;2023-05-02T12:40:49;98468.88;;;25.94;43.19
13553;BME280;6847;48.830;9.116;2023-05-02T12:43:18;98466.13;;;25.78;42.87
13553;BME280;6847;48.830;9.116;2023-05-02T12:45:44;98468.66;;;25.68;42.98
13553;BME280;6847;48.830;9.116;2023-05-02T12:48:31;98410.09;;;25.34;43.10
13553;BME280;6847;48.830;9.116;2023-05-02T12:50:58;98449.84;;;25.77;42.89
13553;BME280;6847;48.830;9.116;2023-05-02T12:53:40;98479.22;;;26.16;42.04
13553;BME280;6847;48.830;9.116;2023-05-02T12:56:14;98469.84;;;26.25;41.85
13553;BME280;6847;48.830;9.116;2023-05-02T12:58:43;98467.44;;;26.84;41.35
13553;BME280;6847;48.830;9.116;2023-05-02T13:01:13;98471.06;;;27.34;41.25
13553;BME280;6847;48.830;9.116;2023-05-02T13:03:45;98466.00;;;27.66;40.74
13553;BME280;6847;48.830;9.116;2023-05-02T13:06:12;98472.66;;;27.35;40.97
13553;BME280;6847;48.830;9.116;2023-05-02T13:08:46;98457.38;;;26.76;41.77
13553;BME280;6847;48.830;9.116;2023-05-02T13:11:16;98476.44;;;26.36;42.07
13553;BME280;6847;48.830;9.116;2023-05-02T13:13:45;98466.09;;;25.94;42.74
13553;BME280;6847;48.830;9.116;2023-05-02T13:16:12;98440.06;;;25.64;42.82
13553;BME280;6847;48.830;9.116;2023-05-02T13:18:39;98364.06;;;24.95;42.30
13553;BME280;6847;48.830;9.116;2023-05-02T13:21:08;98470.88;;;26.16;41.68
13553;BME280;6847;48.830;9.116;2023-05-02T13:23:35;98461.56;;;26.89;40.66
13553;BME280;6847;48.830;9.116;2023-05-02T13:26:03;98462.63;;;27.80;39.96
13553;BME280;6847;48.830;9.116;2023-05-02T13:28:30;98455.06;;;28.44;39.29
13553;BME280;6847;48.830;9.116;2023-05-02T13:30:57;98465.41;;;29.28;38.35
13553;BME280;6847;48.830;9.116;2023-05-02T13:33:24;98465.13;;;30.09;37.91